Time;durP1;ratioP1;P1;durP2;ratioP2;P2;SDS_P1;SDS_P2;PMS_P1;PMS_P2;Temp;Humidity;BMP_temperature;BMP_pressure;BME280_temperature;BME280_humidity;BME280_pressure;Samples;Min_cycle;Max_cycle;Signal;HPM_P1;HPM_P2
2023/12/28 00:01:15;;;;;;;26.77;9.30;;;;;;;7.75;55.04;100836.78;3128847;28;20053;-68
2023/12/28 00:02:47;;;;;;;23.95;9.25;;;;;;;7.76;55.08;100832.47;3129082;28;20474;-68
2023/12/28 00:04:18;;;;;;;21.30;8.55;;;;;;;7.74;55.06;100829.03;3120115;28;20059;-68
2023/12/28 00:05:50;;;;;;;24.92;9.32;;;;;;;7.75;55.24;100830.75;3128255;28;20521;-68
2023/12/28 00:07:21;;;;;;;24.48;9.35;;;;;;;7.75;55.27;100836.78;3128738;28;20060;-68
2023/12/28 00:08:54;;;;;;;25.77;10.35;;;;;;;7.76;55.22;100832.47;3128344;28;20079;-67
2023/12/28 00:10:26;;;;;;;25.20;9.68;;;;;;;7.72;55.20;100833.41;3128763;28;20068;-68
2023/12/28 00:11:59;;;;;;;19.90;9.45;;;;;;;7.73;55.47;100835.09;3128737;28;20098;-68
2023/12/28 00:13:30;;;;;;;;;;;;;;;7.57;55.37;100831.88;3129026;28;20057;-68
2023/12/28 00:15:02;;;;;;;20.83;8.65;;;;;;;7.63;55.67;100841.31;3128619;28;19924;-68
2023/12/28 00:16:34;;;;;;;24.45;9.40;;;;;;;7.66;55.56;100836.06;3128699;28;20079;-68
2023/12/28 00:18:05;;;;;;;27.50;9.18;;;;;;;7.68;55.75;100842.94;3128444;28;20394;-67
2023/12/28 00:19:36;;;;;;;20.92;10.38;;;;;;;7.69;55.59;100846.38;3128706;28;20049;-67
2023/12/28 00:21:08;;;;;;;21.92;9.30;;;;;;;7.70;55.63;100848.13;3128507;28;20053;-68
2023/12/28 00:22:39;;;;;;;24.25;8.75;;;;;;;7.67;55.95;100846.44;3128591;28;20044;-68
2023/12/28 00:24:12;;;;;;;19.17;8.55;;;;;;;7.70;55.91;100856.75;3128395;28;20056;-68
2023/12/28 00:25:43;;;;;;;16.30;7.93;;;;;;;7.68;56.00;100855.91;3128486;28;20079;-68
2023/12/28 00:27:15;;;;;;;21.55;8.10;;;;;;;7.69;56.05;100861.94;3128365;28;20053;-68
2023/12/28 00:28:46;;;;;;;20.80;9.30;;;;;;;7.69;56.09;100860.22;3128684;28;20076;-68
2023/12/28 00:30:18;;;;;;;18.27;9.05;;;;;;;7.69;56.29;100868.00;3128641;28;20564;-68
2023/12/28 00:31:49;;;;;;;22.45;8.93;;;;;;;7.68;56.24;100860.25;3128396;28;20072;-67
2023/12/28 00:33:20;;;;;;;23.05;9.93;;;;;;;7.67;56.38;100866.31;3128317;28;20083;-68
2023/12/28 00:34:51;;;;;;;19.90;8.82;;;;;;;7.67;56.38;100874.09;3128494;28;20052;-68
2023/12/28 00:36:23;;;;;;;22.27;9.63;;;;;;;7.65;56.50;100875.84;3128396;28;20053;-66
2023/12/28 00:37:54;;;;;;;22.30;10.07;;;;;;;7.65;56.50;100881.03;3128369;28;20048;-67
2023/12/28 00:39:27;;;;;;;22.67;9.85;;;;;;;7.63;56.58;100878.47;3128326;28;20056;-67
2023/12/28 00:40:58;;;;;;;21.55;8.48;;;;;;;7.61;56.69;100881.97;3128241;28;20525;-67
2023/12/28 00:42:30;;;;;;;22.40;8.40;;;;;;;7.59;56.61;100876.78;3128242;28;20088;-67
2023/12/28 00:44:01;;;;;;;18.80;8.02;;;;;;;7.60;56.84;100880.25;3127944;28;20053;-67
2023/12/28 00:45:33;;;;;;;16.33;6.65;;;;;;;7.54;56.87;100878.59;3128013;28;20044;-67
2023/12/28 00:47:06;;;;;;;18.33;7.40;;;;;;;7.59;56.83;100886.31;3128138;28;20049;-67
2023/12/28 00:48:38;;;;;;;14.52;7.22;;;;;;;7.54;56.99;100883.78;3128307;28;20574;-67
2023/12/28 00:50:11;;;;;;;17.15;7.85;;;;;;;7.57;56.91;100888.06;3128098;28;20139;-67
2023/12/28 00:51:43;;;;;;;17.77;6.93;;;;;;;7.55;56.96;100890.69;3128210;28;20063;-68
2023/12/28 00:53:15;;;;;;;17.63;7.43;;;;;;;7.55;57.09;100898.47;3128359;28;20522;-67
2023/12/28 00:54:48;;;;;;;21.00;8.15;;;;;;;7.56;57.35;100901.91;3128056;28;20454;-67
2023/12/28 00:56:20;;;;;;;19.27;7.50;;;;;;;7.38;57.28;100866.78;3128271;28;20122;-68
2023/12/28 00:57:52;;;;;;;17.17;7.63;;;;;;;7.48;57.23;100892.53;3128052;28;20072;-67
2023/12/28 00:59:23;;;;;;;15.52;6.82;;;;;;;7.48;57.42;100889.06;3128154;28;20084;-67
2023/12/28 01:00:56;;;;;;;15.15;6.85;;;;;;;7.46;57.90;100896.88;3128042;28;20053;-67
2023/12/28 01:02:27;;;;;;;;;;;;;;;7.27;57.73;100901.44;3128422;28;20056;-67
2023/12/28 01:03:59;;;;;;;14.15;6.30;;;;;;;7.31;57.86;100904.88;3127939;28;20182;-67
2023/12/28 01:05:30;;;;;;;13.70;5.00;;;;;;;7.33;57.92;100902.25;3127874;28;20561;-67
2023/12/28 01:07:04;;;;;;;18.83;5.88;;;;;;;6.86;57.90;100832.09;3128134;28;20052;-67
2023/12/28 01:08:35;;;;;;;11.40;5.47;;;;;;;7.34;57.91;100911.75;3128011;28;20063;-67
2023/12/28 01:10:08;;;;;;;21.48;6.03;;;;;;;7.35;58.04;100906.53;3128002;28;20547;-67
2023/12/28 01:11:40;;;;;;;13.75;5.95;;;;;;;7.32;58.06;100901.41;3127681;28;20049;-68
2023/12/28 01:13:11;;;;;;;12.57;4.65;;;;;;;7.34;57.97;100909.16;3127696;28;20521;-66
2023/12/28 01:14:43;;;;;;;11.98;5.10;;;;;;;7.34;58.02;100899.66;3127889;28;20099;-68
2023/12/28 01:16:15;;;;;;;13.13;5.93;;;;;;;7.35;57.96;100900.50;3127790;28;20281;-66
2023/12/28 01:17:46;;;;;;;12.60;5.70;;;;;;;7.36;58.05;100897.03;3127856;28;20048;-67
2023/12/28 01:19:19;;;;;;;11.75;4.97;;;;;;;7.35;57.88;100896.16;3127960;28;20096;-67
2023/12/28 01:20:51;;;;;;;11.63;5.18;;;;;;;7.36;57.87;100897.88;3127656;28;20064;-67
2023/12/28 01:22:21;;;;;;;10.55;5.15;;;;;;;7.36;57.88;100889.25;3127840;28;20052;-67
2023/12/28 01:23:54;;;;;;;12.07;5.35;;;;;;;7.36;57.88;100892.69;3127910;28;20053;-67
2023/12/28 01:25:26;;;;;;;13.98;5.45;;;;;;;7.36;58.01;100890.09;3115310;28;20111;-66
2023/12/28 01:26:58;;;;;;;10.13;4.35;;;;;;;7.36;57.87;100887.50;3127608;28;20118;-67
2023/12/28 01:28:30;;;;;;;13.07;5.53;;;;;;;7.36;57.96;100892.69;3127539;28;20052;-67
2023/12/28 01:30:01;;;;;;;10.57;5.25;;;;;;;7.36;58.02;100904.78;3127682;28;20075;-67
2023/12/28 01:31:32;;;;;;;10.68;5.05;;;;;;;7.34;57.78;100901.38;3127657;28;20607;-67
2023/12/28 01:33:04;;;;;;;9.50;5.20;;;;;;;7.33;57.96;100910.03;3127638;28;20053;-66
2023/12/28 01:34:36;;;;;;;12.95;5.45;;;;;;;7.25;58.22;100908.41;3127694;28;20056;-67
2023/12/28 01:36:17;;;;;;;12.57;6.03;;;;;;;7.24;58.23;100900.63;3127477;28;20588;-66
2023/12/28 01:37:48;;;;;;;15.85;7.85;;;;;;;7.22;58.33;100899.81;3127767;28;20048;-67
2023/12/28 01:39:20;;;;;;;14.30;7.70;;;;;;;7.21;58.10;100892.91;3127974;28;20057;-67
2023/12/28 01:40:53;;;;;;;12.93;6.40;;;;;;;7.23;58.36;100894.59;3127674;28;20061;-67
2023/12/28 01:42:24;;;;;;;14.15;6.07;;;;;;;7.21;58.45;100898.94;3127166;28;20148;-67
2023/12/28 01:43:55;;;;;;;13.23;5.88;;;;;;;7.21;58.55;100895.50;3127539;28;20132;-66
2023/12/28 01:45:27;;;;;;;11.38;5.90;;;;;;;7.20;58.46;100899.84;3127523;28;20110;-67
2023/12/28 01:46:59;;;;;;;11.75;5.35;;;;;;;7.19;58.66;100894.69;3127401;28;20063;-68
2023/12/28 01:48:31;;;;;;;12.68;6.25;;;;;;;7.13;58.83;100898.22;3127404;28;20677;-68
2023/12/28 01:50:02;;;;;;;14.82;6.10;;;;;;;7.10;58.85;100895.66;3127276;28;20068;-67
2023/12/28 01:51:35;;;;;;;12.43;5.63;;;;;;;7.08;58.91;100902.59;3127220;28;20052;-67
2023/12/28 01:53:08;;;;;;;14.80;6.65;;;;;;;7.05;58.94;100903.47;3127640;28;20052;-67
2023/12/28 01:54:40;;;;;;;15.35;6.68;;;;;;;6.43;58.82;100811.94;3127796;28;20060;-67
2023/12/28 01:56:13;;;;;;;12.20;5.07;;;;;;;7.02;59.00;100911.28;3127575;28;20074;-67
2023/12/28 01:57:45;;;;;;;12.63;6.10;;;;;;;7.00;59.20;100902.69;3126732;28;20083;-67
2023/12/28 01:59:18;;;;;;;14.93;6.68;;;;;;;6.97;59.04;100905.31;3127445;28;20052;-68
2023/12/28 02:00:51;;;;;;;17.23;6.27;;;;;;;6.92;59.19;100899.34;3127168;28;20125;-68
2023/12/28 02:02:23;;;;;;;23.85;7.78;;;;;;;6.87;59.31;100895.97;3127247;28;20338;-68
2023/12/28 02:03:55;;;;;;;12.32;6.15;;;;;;;6.86;59.33;100904.56;3127346;28;20389;-68
2023/12/28 02:05:27;;;;;;;12.93;5.97;;;;;;;6.87;59.50;100906.31;3127226;28;20076;-68
2023/12/28 02:07:00;;;;;;;18.55;6.95;;;;;;;6.86;59.48;100907.16;3127305;28;20538;-66
2023/12/28 02:08:32;;;;;;;12.85;6.32;;;;;;;6.86;59.43;100908.91;3127335;28;20395;-67
2023/12/28 02:10:03;;;;;;;22.95;7.63;;;;;;;6.84;59.48;100914.13;3127461;28;20150;-67
2023/12/28 02:11:36;;;;;;;15.50;7.97;;;;;;;6.79;59.51;100911.56;3127326;28;20060;-67
2023/12/28 02:13:08;;;;;;;17.95;7.85;;;;;;;6.74;59.40;100909.91;3127067;28;20057;-67
2023/12/28 02:14:40;;;;;;;19.85;8.18;;;;;;;6.69;59.57;100909.97;3127194;28;20132;-67
2023/12/28 02:16:16;;;;;;;22.08;8.93;;;;;;;6.64;59.78;100914.34;3127125;28;20045;-67
2023/12/28 02:17:56;;;;;;;24.98;8.55;;;;;;;6.55;60.09;100909.28;3126941;28;20095;-67
2023/12/28 02:19:43;;;;;;;27.17;10.07;;;;;;;6.49;60.08;100914.50;3127145;28;20060;-67
2023/12/28 02:21:16;;;;;;;22.17;8.40;;;;;;;6.48;60.21;100915.41;3127018;28;20056;-67
2023/12/28 02:22:47;;;;;;;23.63;8.85;;;;;;;6.46;60.23;100915.41;3127222;28;20154;-67
2023/12/28 02:24:19;;;;;;;19.45;8.35;;;;;;;6.43;60.34;100912.00;3126944;28;20053;-67
2023/12/28 02:25:51;;;;;;;22.17;8.77;;;;;;;6.42;60.18;100910.25;3127124;28;20045;-67
2023/12/28 02:27:23;;;;;;;27.67;9.35;;;;;;;6.40;60.34;100910.28;3126838;28;20468;-69
2023/12/28 02:28:55;;;;;;;22.17;9.65;;;;;;;6.39;60.33;100913.75;3126945;28;20057;-66
2023/12/28 02:30:26;;;;;;;24.05;9.60;;;;;;;6.36;60.16;100911.22;3127150;28;20052;-67
2023/12/28 02:32:04;;;;;;;21.52;8.80;;;;;;;5.90;60.23;100837.47;3127314;28;20057;-67
2023/12/28 02:33:43;;;;;;;17.67;8.75;;;;;;;6.36;60.11;100914.66;3114854;28;20049;-66
2023/12/28 02:35:20;;;;;;;18.52;8.38;;;;;;;6.37;60.09;100910.31;3126968;28;20387;-68
2023/12/28 02:36:52;;;;;;;20.25;8.38;;;;;;;6.38;60.01;100920.63;3127039;28;20544;-67
2023/12/28 02:38:26;;;;;;;26.25;8.93;;;;;;;6.39;60.18;100918.94;3127274;28;20053;-68
2023/12/28 02:39:57;;;;;;;19.55;8.50;;;;;;;6.39;60.11;100918.94;3114769;28;20111;-66
2023/12/28 02:41:32;;;;;;;20.08;8.30;;;;;;;6.41;60.07;100924.06;3126222;28;20194;-67
2023/12/28 02:43:03;;;;;;;21.38;8.75;;;;;;;5.96;60.18;100853.81;3126507;28;20056;-67
2023/12/28 02:44:35;;;;;;;24.13;9.40;;;;;;;6.38;60.10;100922.38;3126900;28;20193;-67
2023/12/28 02:46:06;;;;;;;24.85;9.00;;;;;;;6.37;60.09;100934.47;3126859;28;20075;-67
2023/12/28 02:47:38;;;;;;;18.75;8.30;;;;;;;6.37;60.21;100936.19;3127161;28;20053;-66
2023/12/28 02:49:11;;;;;;;21.48;8.20;;;;;;;6.36;60.16;100931.91;3127111;28;20053;-68
2023/12/28 02:50:43;;;;;;;22.00;8.52;;;;;;;6.36;60.17;100934.50;3126710;28;20137;-67
2023/12/28 02:52:14;;;;;;;16.67;7.95;;;;;;;6.35;60.28;100932.75;3131343;28;20059;-68
2023/12/28 02:53:46;;;;;;;23.23;8.25;;;;;;;6.36;60.17;100929.31;3132067;28;20048;-68
2023/12/28 02:55:16;;;;;;;19.77;8.70;;;;;;;6.27;60.16;100913.84;3131930;28;20052;-68
2023/12/28 02:56:49;;;;;;;24.38;8.45;;;;;;;6.35;60.27;100927.56;3132053;28;20049;-69
2023/12/28 02:58:20;;;;;;;22.90;8.35;;;;;;;6.33;60.39;100937.06;3131732;28;20045;-68
2023/12/28 02:59:52;;;;;;;18.85;8.05;;;;;;;6.33;60.40;100937.97;3132039;28;20461;-66
2023/12/28 03:01:23;;;;;;;19.05;7.53;;;;;;;6.34;60.46;100937.06;3131910;28;20055;-67
2023/12/28 03:02:55;;;;;;;22.20;8.15;;;;;;;6.35;60.52;100936.19;3132156;28;20052;-67
2023/12/28 03:04:26;;;;;;;19.35;7.60;;;;;;;6.34;60.54;100936.22;3132073;28;20045;-66
2023/12/28 03:05:57;;;;;;;19.13;8.38;;;;;;;6.33;60.74;100929.31;3131930;28;20056;-67
2023/12/28 03:07:28;;;;;;;17.25;7.95;;;;;;;6.32;60.67;100932.78;3119807;28;20057;-67
2023/12/28 03:09:00;;;;;;;17.15;7.72;;;;;;;6.31;60.77;100926.75;3131667;28;20454;-68
2023/12/28 03:10:31;;;;;;;21.63;8.15;;;;;;;6.31;60.88;100936.25;3134604;28;20056;-67
2023/12/28 03:12:04;;;;;;;15.40;7.80;;;;;;;6.31;60.90;100938.84;3134395;28;20045;-68
2023/12/28 03:13:35;;;;;;;19.15;7.60;;;;;;;6.30;60.93;100937.09;3134200;28;20053;-67
2023/12/28 03:15:07;;;;;;;16.95;7.45;;;;;;;6.30;60.98;100934.53;3134328;28;20477;-67
2023/12/28 03:16:38;;;;;;;15.07;7.55;;;;;;;6.28;60.93;100933.69;3134648;28;20059;-68
2023/12/28 03:18:10;;;;;;;19.10;8.90;;;;;;;6.28;61.04;100936.28;3134496;28;20045;-68
2023/12/28 03:19:40;;;;;;;19.17;8.10;;;;;;;6.25;61.09;100937.16;3134433;28;20498;-67
2023/12/28 03:21:12;;;;;;;17.60;8.43;;;;;;;6.22;61.21;100931.16;3134092;28;20045;-68
2023/12/28 03:22:43;;;;;;;16.15;7.47;;;;;;;6.21;61.27;100932.91;3134302;28;20059;-67
2023/12/28 03:24:15;;;;;;;17.52;8.05;;;;;;;6.19;61.43;100931.19;3134462;28;20451;-67
2023/12/28 03:25:46;;;;;;;19.13;8.57;;;;;;;6.18;61.55;100926.88;3134130;28;20441;-68
2023/12/28 03:27:19;;;;;;;22.02;8.27;;;;;;;6.14;61.69;100924.31;3134341;28;20280;-68
2023/12/28 03:28:49;;;;;;;21.60;8.93;;;;;;;6.10;61.81;100920.06;3134081;28;20414;-68
2023/12/28 03:30:21;;;;;;;18.25;9.27;;;;;;;6.09;61.96;100917.47;3134126;28;20056;-67
2023/12/28 03:31:52;;;;;;;16.95;8.77;;;;;;;6.08;61.74;100911.44;3134302;28;20064;-67
2023/12/28 03:33:24;;;;;;;20.55;8.68;;;;;;;6.08;61.84;100908.88;3134392;28;20071;-67
2023/12/28 03:34:55;;;;;;;23.17;9.52;;;;;;;6.07;61.79;100906.31;3134145;28;20048;-68
2023/12/28 03:36:26;;;;;;;19.40;9.63;;;;;;;6.05;61.71;100903.72;3133971;28;20056;-67
2023/12/28 03:37:57;;;;;;;23.23;9.77;;;;;;;6.02;61.66;100902.91;3134372;28;20444;-68
2023/12/28 03:39:29;;;;;;;25.80;9.80;;;;;;;6.02;61.55;100906.31;3142685;28;20059;-67
2023/12/28 03:41:00;;;;;;;19.50;10.13;;;;;;;5.99;61.49;100911.53;3138225;28;20045;-67
2023/12/28 03:42:33;;;;;;;23.00;8.88;;;;;;;6.00;61.47;100905.47;3133902;28;20552;-67
2023/12/28 03:44:04;;;;;;;22.85;9.30;;;;;;;5.97;61.41;100905.50;3133828;28;20112;-67
2023/12/28 03:45:36;;;;;;;18.52;8.77;;;;;;;5.96;61.45;100908.13;3133862;28;20477;-66
2023/12/28 03:47:06;;;;;;;28.02;9.38;;;;;;;5.97;61.30;100909.81;3134118;28;20052;-67
2023/12/28 03:48:38;;;;;;;21.88;9.38;;;;;;;5.92;61.30;100912.44;3133904;28;20068;-67
2023/12/28 03:50:09;;;;;;;20.60;9.25;;;;;;;5.90;61.26;100914.16;3133745;28;20063;-66
2023/12/28 03:51:41;;;;;;;23.98;9.43;;;;;;;5.88;61.37;100914.16;3133906;28;20592;-67
2023/12/28 03:53:13;;;;;;;26.80;10.43;;;;;;;5.88;61.27;100921.06;3134144;28;20052;-67
2023/12/28 03:54:45;;;;;;;24.58;9.90;;;;;;;5.86;61.30;100922.81;3133760;28;20449;-66
2023/12/28 03:56:21;;;;;;;24.35;9.80;;;;;;;5.84;61.32;100924.56;3134449;28;20049;-68
2023/12/28 03:57:54;;;;;;;23.17;9.15;;;;;;;5.80;61.41;100922.88;3125610;28;20139;-68
2023/12/28 03:59:25;;;;;;;26.33;9.77;;;;;;;5.78;61.45;100932.34;3121700;28;20050;-68
2023/12/28 04:00:56;;;;;;;20.30;9.35;;;;;;;5.75;61.54;100930.66;3133292;28;20053;-68
2023/12/28 04:02:31;;;;;;;21.63;8.75;;;;;;;5.74;61.46;100925.47;3134069;28;20529;-68
2023/12/28 04:04:02;;;;;;;23.92;9.60;;;;;;;5.72;61.58;100922.06;3133868;28;20044;-68
2023/12/28 04:05:33;;;;;;;25.23;9.45;;;;;;;5.69;61.66;100921.22;3133829;28;20052;-68
2023/12/28 04:07:07;;;;;;;22.80;9.50;;;;;;;5.66;61.74;100915.22;3133827;28;20048;-67
2023/12/28 04:08:38;;;;;;;20.88;9.15;;;;;;;5.61;61.88;100915.22;3134226;28;20139;-68
2023/12/28 04:10:10;;;;;;;26.13;10.00;;;;;;;5.59;61.84;100914.41;3134002;28;20510;-68
2023/12/28 04:11:41;;;;;;;21.92;10.50;;;;;;;5.57;61.86;100916.13;3134033;28;20102;-68
2023/12/28 04:13:15;;;;;;;27.05;9.55;;;;;;;5.48;61.84;100892.94;3133976;28;20059;-68
2023/12/28 04:14:45;;;;;;;19.77;9.30;;;;;;;5.57;61.88;100916.13;3133860;28;20060;-68
2023/12/28 04:16:22;;;;;;;21.13;9.13;;;;;;;5.58;61.83;100928.16;3133893;28;20151;-67
2023/12/28 04:17:53;;;;;;;26.65;9.65;;;;;;;5.56;61.90;100934.22;3133786;28;20044;-68
2023/12/28 04:19:25;;;;;;;19.67;9.75;;;;;;;5.55;62.04;100932.50;3133918;28;20419;-67
2023/12/28 04:20:56;;;;;;;17.75;8.70;;;;;;;5.52;62.06;100928.22;3132838;28;20049;-67
2023/12/28 04:22:27;;;;;;;24.95;8.95;;;;;;;5.54;62.11;100929.06;3133914;28;20529;-68
2023/12/28 04:23:58;;;;;;;22.48;9.70;;;;;;;5.54;62.19;100933.38;3133619;28;20045;-67
2023/12/28 04:25:30;;;;;;;21.23;8.32;;;;;;;5.54;62.29;100930.81;3133548;28;20060;-67
2023/12/28 04:27:01;;;;;;;18.67;8.55;;;;;;;5.54;62.16;100935.97;3133888;28;20045;-67
2023/12/28 04:28:34;;;;;;;26.67;8.13;;;;;;;5.54;62.37;100931.66;3133531;28;20152;-67
2023/12/28 04:30:06;;;;;;;;;;;;;;;5.39;62.38;100936.91;3134016;28;20053;-67
2023/12/28 04:31:40;;;;;;;18.63;8.05;;;;;;;5.45;62.58;100932.56;3133832;28;19928;-67
2023/12/28 04:33:12;;;;;;;13.90;7.20;;;;;;;5.44;62.56;100936.03;3133472;28;20052;-66
2023/12/28 04:34:43;;;;;;;14.68;7.85;;;;;;;5.47;62.60;100941.19;3133409;28;20060;-67
2023/12/28 04:36:14;;;;;;;16.95;8.05;;;;;;;5.47;62.54;100940.28;3133436;28;20442;-67
2023/12/28 04:37:45;;;;;;;19.05;8.15;;;;;;;5.49;62.60;100948.91;3133501;28;20053;-67
2023/12/28 04:39:17;;;;;;;19.38;7.90;;;;;;;5.51;62.50;100952.34;3140424;28;20059;-67
2023/12/28 04:40:48;;;;;;;18.55;8.50;;;;;;;5.51;62.46;100952.34;3138518;28;20048;-67
2023/12/28 04:42:20;;;;;;;23.55;9.32;;;;;;;5.52;62.52;100953.19;3133309;28;20056;-66
2023/12/28 04:43:52;;;;;;;19.77;9.07;;;;;;;5.52;62.64;100948.88;3133259;28;20048;-67
2023/12/28 04:45:24;;;;;;;17.10;8.65;;;;;;;5.51;62.56;100952.34;3133474;28;20155;-67
2023/12/28 04:46:54;;;;;;;19.75;8.70;;;;;;;5.51;62.69;100947.19;3132970;28;20048;-66
2023/12/28 04:48:27;;;;;;;19.73;8.57;;;;;;;5.52;62.79;100951.47;3133519;28;20488;-67
2023/12/28 04:49:57;;;;;;;20.38;7.82;;;;;;;5.52;62.78;100950.63;3133193;28;20110;-67
2023/12/28 04:51:29;;;;;;;14.90;7.85;;;;;;;5.51;62.80;100948.91;3133060;28;20497;-67
2023/12/28 04:53:00;;;;;;;21.25;8.13;;;;;;;5.52;62.84;100945.44;3133542;28;20056;-67
2023/12/28 04:54:32;;;;;;;19.23;7.03;;;;;;;5.52;62.91;100948.88;3133493;28;20052;-67
2023/12/28 04:56:04;;;;;;;17.27;7.55;;;;;;;5.52;62.85;100948.03;3133122;28;20045;-68
2023/12/28 04:57:35;;;;;;;17.52;6.82;;;;;;;5.51;62.87;100946.31;3133390;28;20132;-67
2023/12/28 04:59:07;;;;;;;15.40;7.35;;;;;;;5.50;63.01;100945.44;3133176;28;20402;-67
2023/12/28 05:00:39;;;;;;;15.07;6.72;;;;;;;5.46;63.03;100944.59;3133153;28;20049;-67
2023/12/28 05:02:10;;;;;;;15.57;7.07;;;;;;;5.43;63.08;100936.88;3133342;28;20065;-66
2023/12/28 05:03:42;;;;;;;21.45;7.15;;;;;;;5.43;63.13;100938.59;3133306;28;20655;-67
2023/12/28 05:05:13;;;;;;;17.58;7.13;;;;;;;4.63;63.12;100822.84;3133128;28;20052;-67
2023/12/28 05:06:45;;;;;;;18.63;7.05;;;;;;;4.64;62.90;100818.53;3133009;28;20179;-67
2023/12/28 05:08:16;;;;;;;25.35;9.88;;;;;;;5.41;63.19;100942.91;3133140;28;20494;-67
2023/12/28 05:09:47;;;;;;;19.63;8.02;;;;;;;5.39;63.05;100936.91;3133186;28;20045;-67
2023/12/28 05:11:18;;;;;;;16.17;7.75;;;;;;;5.37;62.97;100936.06;3133140;28;20052;-67
2023/12/28 05:12:50;;;;;;;20.58;6.88;;;;;;;5.36;62.95;100945.53;3132970;28;20044;-64
2023/12/28 05:14:22;;;;;;;16.30;5.95;;;;;;;5.37;62.87;100938.66;3133148;28;20049;-68
2023/12/28 05:15:54;;;;;;;15.10;6.18;;;;;;;5.34;62.72;100938.66;3133116;28;20199;-66
2023/12/28 05:17:25;;;;;;;13.73;6.43;;;;;;;5.35;62.79;100936.06;3133284;28;20053;-66
2023/12/28 05:18:56;;;;;;;15.43;6.25;;;;;;;5.34;62.79;100938.66;3133133;28;20479;-67
2023/12/28 05:20:27;;;;;;;16.48;5.85;;;;;;;5.30;62.83;100921.47;3120635;28;20569;-68
2023/12/28 05:22:02;;;;;;;14.50;5.57;;;;;;;5.32;62.79;100936.06;3132454;28;20057;-68
2023/12/28 05:23:33;;;;;;;11.48;5.78;;;;;;;5.30;62.71;100932.66;3133260;28;20037;-68
2023/12/28 05:25:07;;;;;;;13.43;6.00;;;;;;;5.30;62.59;100931.81;3133093;28;20132;-68
2023/12/28 05:26:37;;;;;;;;;;;;;;;5.16;62.82;100937.88;3133583;28;20122;-67
2023/12/28 05:28:09;;;;;;;12.27;6.10;;;;;;;5.19;62.74;100935.28;3132953;28;20070;-68
2023/12/28 05:29:41;;;;;;;14.98;5.65;;;;;;;5.24;62.78;100937.88;3133202;28;20056;-68
2023/12/28 05:31:13;;;;;;;16.58;6.50;;;;;;;5.23;62.81;100928.38;3132854;28;20049;-67
2023/12/28 05:32:45;;;;;;;15.82;6.55;;;;;;;5.23;62.76;100930.97;3131979;28;20069;-67
2023/12/28 05:34:16;;;;;;;14.23;6.60;;;;;;;5.21;62.77;100933.56;3133135;28;20053;-67
2023/12/28 05:35:48;;;;;;;16.67;6.40;;;;;;;5.21;62.93;100936.16;3132542;28;20049;-66
2023/12/28 05:37:19;;;;;;;12.85;6.50;;;;;;;5.20;62.75;100937.00;3133098;28;20053;-67
2023/12/28 05:38:51;;;;;;;13.38;6.20;;;;;;;5.21;62.70;100933.56;3136184;28;20101;-67
2023/12/28 05:40:21;;;;;;;15.90;6.30;;;;;;;5.20;62.77;100930.97;3138026;28;20094;-67
2023/12/28 05:41:53;;;;;;;14.25;5.90;;;;;;;5.19;62.75;100937.88;3132763;28;20084;-67
2023/12/28 05:43:24;;;;;;;12.05;5.63;;;;;;;5.19;62.72;100937.88;3131877;28;20432;-67
2023/12/28 05:44:57;;;;;;;10.68;5.07;;;;;;;5.19;62.80;100937.88;3133127;28;20052;-67
2023/12/28 05:46:28;;;;;;;11.88;5.10;;;;;;;5.17;62.77;100939.59;3132716;28;20041;-67
2023/12/28 05:47:59;;;;;;;15.10;5.13;;;;;;;5.19;62.76;100944.75;3132668;28;20053;-67
2023/12/28 05:49:30;;;;;;;15.45;6.40;;;;;;;5.20;62.70;100944.75;3132750;28;20064;-67
2023/12/28 05:51:02;;;;;;;15.38;5.28;;;;;;;5.20;62.69;100942.16;3132689;28;20048;-67
2023/12/28 05:52:33;;;;;;;10.70;5.03;;;;;;;5.22;62.70;100943.03;3132573;28;20045;-67
2023/12/28 05:54:05;;;;;;;13.60;5.50;;;;;;;5.23;62.70;100946.47;3132520;28;20045;-66
2023/12/28 05:55:36;;;;;;;10.82;4.63;;;;;;;5.22;62.57;100945.59;3128063;28;20505;-67
2023/12/28 05:57:07;;;;;;;10.73;5.13;;;;;;;5.21;62.61;100946.47;3132772;28;20068;-67
2023/12/28 05:58:38;;;;;;;12.75;4.82;;;;;;;5.23;62.51;100949.91;3132624;28;20059;-67
2023/12/28 06:00:13;;;;;;;9.70;5.28;;;;;;;5.23;62.44;100952.50;3132557;28;20065;-67
2023/12/28 06:01:44;;;;;;;9.32;4.10;;;;;;;5.21;62.48;100954.22;3132384;28;20106;-67
2023/12/28 06:03:16;;;;;;;9.05;4.75;;;;;;;5.22;62.52;100953.34;3132529;28;20214;-67
2023/12/28 06:04:47;;;;;;;12.30;4.78;;;;;;;5.22;62.56;100963.69;3132414;28;20049;-66
2023/12/28 06:06:18;;;;;;;8.77;4.20;;;;;;;5.21;62.50;100961.97;3132314;28;20171;-67
2023/12/28 06:07:50;;;;;;;11.60;4.53;;;;;;;5.23;62.59;100960.25;3132450;28;20151;-67
2023/12/28 06:09:21;;;;;;;12.68;5.13;;;;;;;5.23;62.51;100957.66;3132462;28;20048;-67
2023/12/28 06:10:53;;;;;;;12.75;5.63;;;;;;;5.25;62.54;100953.34;3132278;28;20064;-67
2023/12/28 06:12:24;;;;;;;14.63;5.47;;;;;;;5.25;62.60;100961.09;3132668;28;20418;-67
2023/12/28 06:13:55;;;;;;;13.93;5.40;;;;;;;5.25;62.59;100961.09;3132534;28;20045;-66
2023/12/28 06:15:28;;;;;;;18.17;7.35;;;;;;;5.29;62.69;100966.22;3132449;28;20060;-67
2023/12/28 06:16:59;;;;;;;12.30;6.30;;;;;;;5.28;62.58;100962.78;3132623;28;20053;-67
2023/12/28 06:18:31;;;;;;;13.50;5.88;;;;;;;5.31;62.87;100957.63;3132486;28;20441;-67
2023/12/28 06:20:02;;;;;;;12.90;6.20;;;;;;;5.29;62.88;100953.31;3132606;28;20045;-67
2023/12/28 06:21:34;;;;;;;15.07;6.22;;;;;;;5.35;62.94;100959.31;3132407;28;20056;-67
2023/12/28 06:23:07;;;;;;;15.80;6.25;;;;;;;5.41;62.79;100958.41;3132435;28;20057;-67
2023/12/28 06:24:39;;;;;;;16.58;7.22;;;;;;;5.44;62.90;100961.88;3132461;28;20501;-68
2023/12/28 06:26:11;;;;;;;13.05;6.35;;;;;;;5.48;62.85;100963.56;3132590;28;20049;-68
2023/12/28 06:27:42;;;;;;;17.48;7.55;;;;;;;5.54;62.78;100966.97;3132484;28;20395;-68
2023/12/28 06:29:13;;;;;;;23.05;8.20;;;;;;;5.56;62.92;100971.28;3132516;28;20057;-68
2023/12/28 06:30:46;;;;;;;40.80;17.23;;;;;;;5.59;62.81;100966.09;3132572;28;20052;-68
2023/12/28 06:32:17;;;;;;;45.08;19.08;;;;;;;5.60;62.90;100967.78;3132462;28;20121;-68
2023/12/28 06:33:49;;;;;;;30.77;13.40;;;;;;;5.69;62.71;100965.16;3132644;28;20422;-68
2023/12/28 06:35:19;;;;;;;22.50;9.88;;;;;;;5.82;62.59;100977.97;3132442;28;20052;-68
2023/12/28 06:36:51;;;;;;;20.88;9.13;;;;;;;5.95;62.46;100973.63;3132495;28;20105;-68
2023/12/28 06:38:22;;;;;;;16.35;8.43;;;;;;;6.08;62.15;100977.84;3132422;28;20041;-68
2023/12/28 06:39:54;;;;;;;21.83;8.55;;;;;;;6.19;61.85;100980.34;3132218;28;20059;-68
2023/12/28 06:41:25;;;;;;;20.77;8.35;;;;;;;6.30;61.49;100983.66;3132051;28;20052;-68
2023/12/28 06:42:57;;;;;;;18.08;8.07;;;;;;;6.39;61.28;100975.84;3131988;28;20041;-68
2023/12/28 06:44:28;;;;;;;23.48;8.40;;;;;;;6.46;61.17;100982.69;3131852;28;20450;-68
2023/12/28 06:46:01;;;;;;;13.57;6.72;;;;;;;6.55;60.96;100986.91;3132111;28;20048;-68
2023/12/28 06:47:32;;;;;;;16.90;7.88;;;;;;;6.61;60.71;100982.53;3132357;28;20522;-68
2023/12/28 06:49:05;;;;;;;19.10;8.05;;;;;;;6.71;60.70;100987.59;3132354;28;20049;-68
2023/12/28 06:50:36;;;;;;;16.08;8.23;;;;;;;6.79;60.34;100989.25;3132005;28;20913;-68
2023/12/28 06:52:08;;;;;;;17.67;7.60;;;;;;;6.86;60.29;100982.25;3132275;28;20056;-68
2023/12/28 06:53:39;;;;;;;18.92;7.68;;;;;;;6.94;60.11;100984.78;3132053;28;20466;-68
2023/12/28 06:55:11;;;;;;;17.05;7.13;;;;;;;7.00;59.97;100985.56;3132282;28;20059;-68
2023/12/28 06:56:42;;;;;;;19.35;8.52;;;;;;;7.11;59.91;100987.19;3132269;28;20041;-67
2023/12/28 06:58:13;;;;;;;49.08;21.33;;;;;;;7.16;59.61;100986.25;3131787;28;20053;-66
2023/12/28 06:59:44;;;;;;;38.95;16.10;;;;;;;7.23;59.61;100998.25;3132256;28;20057;-66
2023/12/28 07:01:18;;;;;;;38.50;15.75;;;;;;;7.33;59.25;100992.94;3132123;28;20485;-66
2023/12/28 07:02:49;;;;;;;23.80;10.38;;;;;;;7.40;59.33;100998.03;3132295;28;20053;-66
2023/12/28 07:04:21;;;;;;;20.48;8.75;;;;;;;7.47;59.22;100991.88;3132352;28;20056;-68
2023/12/28 07:05:51;;;;;;;20.10;8.73;;;;;;;7.52;58.98;100999.63;3131910;28;20049;-68
2023/12/28 07:07:23;;;;;;;19.17;8.82;;;;;;;7.55;58.77;100996.13;3131858;28;20478;-68
2023/12/28 07:08:55;;;;;;;18.52;8.70;;;;;;;7.54;58.69;100984.88;3132219;28;20607;-67